Terminal Aerodrome Forecast
Issued by NWS

Home | Current Version | Previous Version | Text Only | Print | Product List | Glossary On
Versions: 1 2 3 4 5 6 7 8 9 10 11 12 13 14 15 16 17 18
000
FTUS45 KABQ 231122
TAFLVS
TAF
KLVS 231122Z 2312/2412 18006KT P6SM SCT200
     FM231500 20011KT P6SM FEW120 SCT200
     FM231900 22014G22KT P6SM BKN120
     FM240200 20010KT P6SM BKN120
     FM240600 VRB06KT P6SM FEW120=

USA.gov is the U.S. government's official web portal to all federal, state and local government web resources and services.